sensor_id;sensor_type;location;lat;lon;timestamp;P1;durP1;ratioP1;P2;durP2;ratioP2
37781;SDS011;23621;50.878;4.584;2023-04-25T00:00:57;9.40;;;4.40;;
37781;SDS011;23621;50.878;4.584;2023-04-25T00:03:44;10.45;;;4.90;;
37781;SDS011;23621;50.878;4.584;2023-04-25T00:06:36;9.10;;;4.10;;
37781;SDS011;23621;50.878;4.584;2023-04-25T00:09:23;13.52;;;4.75;;
37781;SDS011;23621;50.878;4.584;2023-04-25T00:12:10;11.63;;;4.63;;
37781;SDS011;23621;50.878;4.584;2023-04-25T00:14:58;8.75;;;4.18;;
37781;SDS011;23621;50.878;4.584;2023-04-25T00:17:46;11.27;;;4.30;;
37781;SDS011;23621;50.878;4.584;2023-04-25T00:20:35;8.60;;;4.05;;
37781;SDS011;23621;50.878;4.584;2023-04-25T00:23:22;9.85;;;4.13;;
37781;SDS011;23621;50.878;4.584;2023-04-25T00:26:10;8.52;;;4.63;;
37781;SDS011;23621;50.878;4.584;2023-04-25T00:28:58;10.48;;;5.13;;
37781;SDS011;23621;50.878;4.584;2023-04-25T00:31:45;9.95;;;4.05;;
37781;SDS011;23621;50.878;4.584;2023-04-25T00:34:36;13.55;;;5.10;;
37781;SDS011;23621;50.878;4.584;2023-04-25T00:37:23;11.10;;;4.65;;
37781;SDS011;23621;50.878;4.584;2023-04-25T00:40:11;14.18;;;4.55;;
37781;SDS011;23621;50.878;4.584;2023-04-25T00:42:58;8.88;;;4.20;;
37781;SDS011;23621;50.878;4.584;2023-04-25T00:45:46;6.63;;;4.13;;
37781;SDS011;23621;50.878;4.584;2023-04-25T00:48:34;10.75;;;4.43;;
37781;SDS011;23621;50.878;4.584;2023-04-25T00:51:22;8.48;;;4.47;;
37781;SDS011;23621;50.878;4.584;2023-04-25T00:54:10;10.88;;;4.40;;
37781;SDS011;23621;50.878;4.584;2023-04-25T00:56:58;11.48;;;4.95;;
37781;SDS011;23621;50.878;4.584;2023-04-25T00:59:47;10.18;;;4.95;;
37781;SDS011;23621;50.878;4.584;2023-04-25T01:02:37;9.73;;;4.50;;
37781;SDS011;23621;50.878;4.584;2023-04-25T01:05:25;13.63;;;4.82;;
37781;SDS011;23621;50.878;4.584;2023-04-25T01:08:12;11.07;;;4.60;;
37781;SDS011;23621;50.878;4.584;2023-04-25T01:11:00;11.85;;;4.93;;
37781;SDS011;23621;50.878;4.584;2023-04-25T01:13:47;8.52;;;4.13;;
37781;SDS011;23621;50.878;4.584;2023-04-25T01:16:35;11.23;;;4.13;;
37781;SDS011;23621;50.878;4.584;2023-04-25T01:19:23;10.05;;;4.28;;
37781;SDS011;23621;50.878;4.584;2023-04-25T01:22:11;11.98;;;4.53;;
37781;SDS011;23621;50.878;4.584;2023-04-25T01:24:58;9.02;;;4.47;;
37781;SDS011;23621;50.878;4.584;2023-04-25T01:27:46;9.98;;;4.65;;
37781;SDS011;23621;50.878;4.584;2023-04-25T01:30:34;9.75;;;4.80;;
37781;SDS011;23621;50.878;4.584;2023-04-25T01:33:22;9.27;;;4.47;;
37781;SDS011;23621;50.878;4.584;2023-04-25T01:36:09;8.40;;;4.30;;
37781;SDS011;23621;50.878;4.584;2023-04-25T01:38:57;8.98;;;5.00;;
37781;SDS011;23621;50.878;4.584;2023-04-25T01:41:45;12.48;;;4.53;;
37781;SDS011;23621;50.878;4.584;2023-04-25T01:44:33;11.88;;;5.35;;
37781;SDS011;23621;50.878;4.584;2023-04-25T01:47:20;11.20;;;4.47;;
37781;SDS011;23621;50.878;4.584;2023-04-25T01:50:07;12.43;;;5.00;;
37781;SDS011;23621;50.878;4.584;2023-04-25T01:52:55;9.07;;;4.93;;
37781;SDS011;23621;50.878;4.584;2023-04-25T01:55:43;9.63;;;4.00;;
37781;SDS011;23621;50.878;4.584;2023-04-25T01:58:30;10.85;;;4.45;;
37781;SDS011;23621;50.878;4.584;2023-04-25T02:01:17;15.80;;;5.32;;
37781;SDS011;23621;50.878;4.584;2023-04-25T02:04:05;12.93;;;4.97;;
37781;SDS011;23621;50.878;4.584;2023-04-25T02:06:52;10.40;;;4.72;;
37781;SDS011;23621;50.878;4.584;2023-04-25T02:09:40;10.45;;;4.30;;
37781;SDS011;23621;50.878;4.584;2023-04-25T02:12:27;9.35;;;4.68;;
37781;SDS011;23621;50.878;4.584;2023-04-25T02:15:15;7.80;;;4.45;;
37781;SDS011;23621;50.878;4.584;2023-04-25T02:18:02;8.32;;;4.60;;
37781;SDS011;23621;50.878;4.584;2023-04-25T02:20:50;10.15;;;4.50;;
37781;SDS011;23621;50.878;4.584;2023-04-25T02:23:37;11.38;;;4.45;;
37781;SDS011;23621;50.878;4.584;2023-04-25T02:26:24;8.90;;;4.50;;
37781;SDS011;23621;50.878;4.584;2023-04-25T02:29:12;7.00;;;3.85;;
37781;SDS011;23621;50.878;4.584;2023-04-25T02:32:01;9.35;;;4.30;;
37781;SDS011;23621;50.878;4.584;2023-04-25T02:34:49;8.15;;;4.03;;
37781;SDS011;23621;50.878;4.584;2023-04-25T02:37:36;7.97;;;4.50;;
37781;SDS011;23621;50.878;4.584;2023-04-25T02:40:24;6.43;;;3.95;;
37781;SDS011;23621;50.878;4.584;2023-04-25T02:43:12;11.75;;;4.30;;
37781;SDS011;23621;50.878;4.584;2023-04-25T02:45:59;11.60;;;4.93;;
37781;SDS011;23621;50.878;4.584;2023-04-25T02:48:46;14.30;;;5.45;;
37781;SDS011;23621;50.878;4.584;2023-04-25T02:51:34;10.95;;;4.93;;
37781;SDS011;23621;50.878;4.584;2023-04-25T02:54:21;14.50;;;5.10;;
37781;SDS011;23621;50.878;4.584;2023-04-25T02:57:08;10.18;;;5.00;;
37781;SDS011;23621;50.878;4.584;2023-04-25T02:59:56;10.13;;;5.10;;
37781;SDS011;23621;50.878;4.584;2023-04-25T03:02:43;11.32;;;5.38;;
37781;SDS011;23621;50.878;4.584;2023-04-25T03:05:31;8.55;;;4.80;;
37781;SDS011;23621;50.878;4.584;2023-04-25T03:08:18;12.10;;;5.28;;
37781;SDS011;23621;50.878;4.584;2023-04-25T03:11:06;9.63;;;5.10;;
37781;SDS011;23621;50.878;4.584;2023-04-25T03:13:53;10.57;;;5.10;;
37781;SDS011;23621;50.878;4.584;2023-04-25T03:16:41;11.82;;;5.30;;
37781;SDS011;23621;50.878;4.584;2023-04-25T03:19:28;18.00;;;5.15;;
37781;SDS011;23621;50.878;4.584;2023-04-25T03:22:15;10.32;;;5.45;;
37781;SDS011;23621;50.878;4.584;2023-04-25T03:25:03;11.05;;;5.32;;
37781;SDS011;23621;50.878;4.584;2023-04-25T03:27:51;14.40;;;5.20;;
37781;SDS011;23621;50.878;4.584;2023-04-25T03:30:38;11.60;;;4.82;;
37781;SDS011;23621;50.878;4.584;2023-04-25T03:33:26;14.63;;;4.95;;
37781;SDS011;23621;50.878;4.584;2023-04-25T03:36:13;12.15;;;4.90;;
37781;SDS011;23621;50.878;4.584;2023-04-25T03:39:01;11.30;;;4.03;;
37781;SDS011;23621;50.878;4.584;2023-04-25T03:41:48;10.65;;;4.35;;
37781;SDS011;23621;50.878;4.584;2023-04-25T03:44:35;9.48;;;4.63;;
37781;SDS011;23621;50.878;4.584;2023-04-25T03:47:22;7.70;;;3.58;;
37781;SDS011;23621;50.878;4.584;2023-04-25T03:50:10;11.77;;;4.25;;
37781;SDS011;23621;50.878;4.584;2023-04-25T03:52:57;9.75;;;3.90;;
37781;SDS011;23621;50.878;4.584;2023-04-25T03:55:44;9.60;;;4.25;;
37781;SDS011;23621;50.878;4.584;2023-04-25T03:58:32;10.15;;;4.60;;
37781;SDS011;23621;50.878;4.584;2023-04-25T04:01:19;9.07;;;4.18;;
37781;SDS011;23621;50.878;4.584;2023-04-25T04:04:06;11.80;;;4.43;;
37781;SDS011;23621;50.878;4.584;2023-04-25T04:06:54;11.48;;;4.45;;
37781;SDS011;23621;50.878;4.584;2023-04-25T04:09:41;8.43;;;3.50;;
37781;SDS011;23621;50.878;4.584;2023-04-25T04:12:29;10.35;;;3.58;;
37781;SDS011;23621;50.878;4.584;2023-04-25T04:15:16;8.40;;;3.55;;
37781;SDS011;23621;50.878;4.584;2023-04-25T04:18:03;8.25;;;3.50;;
37781;SDS011;23621;50.878;4.584;2023-04-25T04:20:51;9.00;;;3.67;;
37781;SDS011;23621;50.878;4.584;2023-04-25T04:23:38;7.63;;;3.42;;
37781;SDS011;23621;50.878;4.584;2023-04-25T04:26:25;6.07;;;3.22;;
37781;SDS011;23621;50.878;4.584;2023-04-25T04:29:13;10.57;;;3.60;;
37781;SDS011;23621;50.878;4.584;2023-04-25T04:32:07;9.50;;;3.55;;
37781;SDS011;23621;50.878;4.584;2023-04-25T04:34:55;7.85;;;3.30;;
37781;SDS011;23621;50.878;4.584;2023-04-25T04:37:42;7.68;;;3.65;;
37781;SDS011;23621;50.878;4.584;2023-04-25T04:40:32;5.05;;;3.20;;
37781;SDS011;23621;50.878;4.584;2023-04-25T04:43:19;8.70;;;3.65;;
37781;SDS011;23621;50.878;4.584;2023-04-25T04:46:07;6.88;;;3.53;;
37781;SDS011;23621;50.878;4.584;2023-04-25T04:48:54;6.18;;;3.20;;
37781;SDS011;23621;50.878;4.584;2023-04-25T04:51:43;9.25;;;3.88;;
37781;SDS011;23621;50.878;4.584;2023-04-25T04:54:33;7.38;;;3.53;;
37781;SDS011;23621;50.878;4.584;2023-04-25T04:57:22;8.93;;;3.90;;
37781;SDS011;23621;50.878;4.584;2023-04-25T05:00:10;5.82;;;3.85;;
37781;SDS011;23621;50.878;4.584;2023-04-25T05:02:58;9.38;;;3.63;;
37781;SDS011;23621;50.878;4.584;2023-04-25T05:05:46;9.15;;;3.78;;
37781;SDS011;23621;50.878;4.584;2023-04-25T05:08:33;14.15;;;3.88;;
37781;SDS011;23621;50.878;4.584;2023-04-25T05:11:21;8.57;;;4.35;;
37781;SDS011;23621;50.878;4.584;2023-04-25T05:14:09;6.55;;;3.72;;
37781;SDS011;23621;50.878;4.584;2023-04-25T05:16:57;7.45;;;3.80;;
37781;SDS011;23621;50.878;4.584;2023-04-25T05:19:45;9.18;;;3.38;;
37781;SDS011;23621;50.878;4.584;2023-04-25T05:22:32;8.15;;;4.07;;
37781;SDS011;23621;50.878;4.584;2023-04-25T05:25:20;9.13;;;3.75;;
37781;SDS011;23621;50.878;4.584;2023-04-25T05:28:07;6.82;;;3.58;;
37781;SDS011;23621;50.878;4.584;2023-04-25T05:30:56;5.90;;;3.67;;
37781;SDS011;23621;50.878;4.584;2023-04-25T05:33:43;10.13;;;4.32;;
37781;SDS011;23621;50.878;4.584;2023-04-25T05:36:31;12.38;;;4.50;;
37781;SDS011;23621;50.878;4.584;2023-04-25T05:39:19;8.18;;;3.80;;
37781;SDS011;23621;50.878;4.584;2023-04-25T05:42:06;11.45;;;4.35;;
37781;SDS011;23621;50.878;4.584;2023-04-25T05:44:53;10.43;;;4.30;;
37781;SDS011;23621;50.878;4.584;2023-04-25T05:47:41;10.40;;;4.50;;
37781;SDS011;23621;50.878;4.584;2023-04-25T05:50:28;10.38;;;4.78;;
37781;SDS011;23621;50.878;4.584;2023-04-25T05:53:15;11.15;;;4.43;;
37781;SDS011;23621;50.878;4.584;2023-04-25T05:56:03;6.93;;;4.40;;
37781;SDS011;23621;50.878;4.584;2023-04-25T05:58:51;10.35;;;5.22;;
37781;SDS011;23621;50.878;4.584;2023-04-25T06:01:38;11.88;;;5.13;;
37781;SDS011;23621;50.878;4.584;2023-04-25T06:04:25;10.23;;;5.53;;
37781;SDS011;23621;50.878;4.584;2023-04-25T06:07:13;13.30;;;5.95;;
37781;SDS011;23621;50.878;4.584;2023-04-25T06:10:00;10.55;;;6.22;;
37781;SDS011;23621;50.878;4.584;2023-04-25T06:12:48;9.77;;;5.72;;
37781;SDS011;23621;50.878;4.584;2023-04-25T06:15:35;10.50;;;5.40;;
37781;SDS011;23621;50.878;4.584;2023-04-25T06:18:23;10.07;;;4.60;;
37781;SDS011;23621;50.878;4.584;2023-04-25T06:21:10;10.95;;;4.95;;
37781;SDS011;23621;50.878;4.584;2023-04-25T06:23:57;10.63;;;4.65;;
37781;SDS011;23621;50.878;4.584;2023-04-25T06:26:44;8.65;;;5.20;;
37781;SDS011;23621;50.878;4.584;2023-04-25T06:29:34;8.77;;;4.72;;
37781;SDS011;23621;50.878;4.584;2023-04-25T06:32:21;12.48;;;5.00;;
37781;SDS011;23621;50.878;4.584;2023-04-25T06:35:08;11.63;;;4.90;;
37781;SDS011;23621;50.878;4.584;2023-04-25T06:37:56;14.10;;;5.00;;
37781;SDS011;23621;50.878;4.584;2023-04-25T06:40:43;9.85;;;4.65;;
37781;SDS011;23621;50.878;4.584;2023-04-25T06:43:31;6.75;;;4.60;;
37781;SDS011;23621;50.878;4.584;2023-04-25T06:46:20;10.93;;;4.80;;
37781;SDS011;23621;50.878;4.584;2023-04-25T06:49:07;10.27;;;4.88;;
37781;SDS011;23621;50.878;4.584;2023-04-25T06:51:54;12.65;;;4.95;;
37781;SDS011;23621;50.878;4.584;2023-04-25T06:54:42;9.63;;;4.95;;
37781;SDS011;23621;50.878;4.584;2023-04-25T06:57:29;11.18;;;5.20;;
37781;SDS011;23621;50.878;4.584;2023-04-25T07:00:16;9.98;;;5.28;;
37781;SDS011;23621;50.878;4.584;2023-04-25T07:03:04;12.15;;;5.55;;
37781;SDS011;23621;50.878;4.584;2023-04-25T07:05:52;9.25;;;5.28;;
37781;SDS011;23621;50.878;4.584;2023-04-25T07:08:39;13.50;;;5.05;;
37781;SDS011;23621;50.878;4.584;2023-04-25T07:11:26;14.38;;;5.07;;
37781;SDS011;23621;50.878;4.584;2023-04-25T07:14:14;12.15;;;5.28;;
37781;SDS011;23621;50.878;4.584;2023-04-25T07:17:01;12.00;;;5.53;;
37781;SDS011;23621;50.878;4.584;2023-04-25T07:19:48;12.82;;;5.78;;
37781;SDS011;23621;50.878;4.584;2023-04-25T07:22:36;14.43;;;5.78;;
37781;SDS011;23621;50.878;4.584;2023-04-25T07:25:23;10.82;;;5.75;;
37781;SDS011;23621;50.878;4.584;2023-04-25T07:28:11;11.57;;;6.47;;
37781;SDS011;23621;50.878;4.584;2023-04-25T07:30:59;12.43;;;5.47;;
37781;SDS011;23621;50.878;4.584;2023-04-25T07:33:46;12.95;;;5.97;;
37781;SDS011;23621;50.878;4.584;2023-04-25T07:36:33;16.10;;;6.10;;
37781;SDS011;23621;50.878;4.584;2023-04-25T07:39:21;13.55;;;6.60;;
37781;SDS011;23621;50.878;4.584;2023-04-25T07:42:09;9.93;;;5.25;;
37781;SDS011;23621;50.878;4.584;2023-04-25T07:44:57;11.80;;;5.95;;
37781;SDS011;23621;50.878;4.584;2023-04-25T07:47:44;10.55;;;5.65;;
37781;SDS011;23621;50.878;4.584;2023-04-25T07:50:31;9.32;;;5.07;;
37781;SDS011;23621;50.878;4.584;2023-04-25T07:53:18;11.57;;;5.45;;
37781;SDS011;23621;50.878;4.584;2023-04-25T07:56:06;9.63;;;5.20;;
37781;SDS011;23621;50.878;4.584;2023-04-25T07:58:53;8.55;;;4.65;;
37781;SDS011;23621;50.878;4.584;2023-04-25T08:01:40;7.65;;;4.32;;
37781;SDS011;23621;50.878;4.584;2023-04-25T08:04:28;7.88;;;4.47;;
37781;SDS011;23621;50.878;4.584;2023-04-25T08:07:15;11.25;;;4.78;;
37781;SDS011;23621;50.878;4.584;2023-04-25T08:10:03;8.60;;;4.82;;
37781;SDS011;23621;50.878;4.584;2023-04-25T08:12:51;9.43;;;4.25;;
37781;SDS011;23621;50.878;4.584;2023-04-25T08:15:38;8.30;;;3.90;;
37781;SDS011;23621;50.878;4.584;2023-04-25T08:18:26;9.25;;;3.95;;
37781;SDS011;23621;50.878;4.584;2023-04-25T08:21:13;8.38;;;3.72;;
37781;SDS011;23621;50.878;4.584;2023-04-25T08:24:01;9.10;;;3.28;;
37781;SDS011;23621;50.878;4.584;2023-04-25T08:26:49;11.13;;;3.30;;
37781;SDS011;23621;50.878;4.584;2023-04-25T08:29:36;7.65;;;4.40;;
37781;SDS011;23621;50.878;4.584;2023-04-25T08:32:23;9.27;;;3.47;;
37781;SDS011;23621;50.878;4.584;2023-04-25T08:35:11;9.55;;;3.97;;
37781;SDS011;23621;50.878;4.584;2023-04-25T08:37:58;7.40;;;3.85;;
37781;SDS011;23621;50.878;4.584;2023-04-25T08:40:45;6.47;;;3.20;;
37781;SDS011;23621;50.878;4.584;2023-04-25T08:43:37;9.48;;;3.97;;
37781;SDS011;23621;50.878;4.584;2023-04-25T08:46:27;9.60;;;4.03;;
37781;SDS011;23621;50.878;4.584;2023-04-25T08:49:17;9.40;;;4.05;;
37781;SDS011;23621;50.878;4.584;2023-04-25T08:52:05;8.43;;;4.28;;
37781;SDS011;23621;50.878;4.584;2023-04-25T08:54:54;7.68;;;3.50;;
37781;SDS011;23621;50.878;4.584;2023-04-25T08:57:43;13.93;;;7.38;;
37781;SDS011;23621;50.878;4.584;2023-04-25T09:00:31;11.32;;;3.70;;
37781;SDS011;23621;50.878;4.584;2023-04-25T09:03:19;6.45;;;3.58;;
37781;SDS011;23621;50.878;4.584;2023-04-25T09:06:07;6.22;;;2.97;;
37781;SDS011;23621;50.878;4.584;2023-04-25T09:09:06;7.45;;;3.10;;
37781;SDS011;23621;50.878;4.584;2023-04-25T09:11:55;6.93;;;2.97;;
37781;SDS011;23621;50.878;4.584;2023-04-25T09:14:43;6.57;;;2.80;;
37781;SDS011;23621;50.878;4.584;2023-04-25T09:17:55;8.73;;;3.17;;
37781;SDS011;23621;50.878;4.584;2023-04-25T09:20:43;5.28;;;2.58;;
37781;SDS011;23621;50.878;4.584;2023-04-25T09:23:49;8.95;;;3.40;;
37781;SDS011;23621;50.878;4.584;2023-04-25T09:26:39;7.90;;;3.00;;
37781;SDS011;23621;50.878;4.584;2023-04-25T09:29:32;6.97;;;3.00;;
37781;SDS011;23621;50.878;4.584;2023-04-25T09:32:25;9.35;;;2.97;;
37781;SDS011;23621;50.878;4.584;2023-04-25T09:35:23;7.43;;;2.85;;
37781;SDS011;23621;50.878;4.584;2023-04-25T09:38:13;6.38;;;3.22;;
37781;SDS011;23621;50.878;4.584;2023-04-25T09:41:02;5.72;;;3.05;;
37781;SDS011;23621;50.878;4.584;2023-04-25T09:43:50;5.20;;;3.17;;
37781;SDS011;23621;50.878;4.584;2023-04-25T09:46:37;6.50;;;3.30;;
37781;SDS011;23621;50.878;4.584;2023-04-25T09:49:25;6.80;;;3.50;;
37781;SDS011;23621;50.878;4.584;2023-04-25T09:52:15;6.05;;;3.03;;
37781;SDS011;23621;50.878;4.584;2023-04-25T09:55:04;6.65;;;3.30;;
37781;SDS011;23621;50.878;4.584;2023-04-25T09:57:52;5.55;;;2.42;;
37781;SDS011;23621;50.878;4.584;2023-04-25T10:00:44;4.22;;;2.10;;
37781;SDS011;23621;50.878;4.584;2023-04-25T10:03:32;5.30;;;2.03;;
37781;SDS011;23621;50.878;4.584;2023-04-25T10:06:24;4.57;;;2.13;;
37781;SDS011;23621;50.878;4.584;2023-04-25T10:09:13;3.80;;;2.30;;
37781;SDS011;23621;50.878;4.584;2023-04-25T10:12:02;5.10;;;1.90;;
37781;SDS011;23621;50.878;4.584;2023-04-25T10:14:50;5.30;;;2.60;;
37781;SDS011;23621;50.878;4.584;2023-04-25T10:17:38;3.60;;;2.30;;
37781;SDS011;23621;50.878;4.584;2023-04-25T10:20:26;3.38;;;2.40;;
37781;SDS011;23621;50.878;4.584;2023-04-25T10:23:14;5.60;;;2.28;;
37781;SDS011;23621;50.878;4.584;2023-04-25T10:26:03;4.30;;;2.00;;
37781;SDS011;23621;50.878;4.584;2023-04-25T10:28:54;4.68;;;2.15;;
37781;SDS011;23621;50.878;4.584;2023-04-25T10:31:45;4.03;;;2.13;;
37781;SDS011;23621;50.878;4.584;2023-04-25T10:34:37;5.22;;;2.20;;
37781;SDS011;23621;50.878;4.584;2023-04-25T10:37:26;6.45;;;2.10;;
37781;SDS011;23621;50.878;4.584;2023-04-25T10:40:14;5.65;;;2.67;;
37781;SDS011;23621;50.878;4.584;2023-04-25T10:46:22;5.32;;;2.08;;
37781;SDS011;23621;50.878;4.584;2023-04-25T10:49:30;5.07;;;1.95;;
37781;SDS011;23621;50.878;4.584;2023-04-25T10:55:10;3.20;;;1.90;;
37781;SDS011;23621;50.878;4.584;2023-04-25T10:57:58;2.05;;;1.70;;
37781;SDS011;23621;50.878;4.584;2023-04-25T11:00:51;3.83;;;2.00;;
37781;SDS011;23621;50.878;4.584;2023-04-25T11:03:43;4.93;;;2.17;;
37781;SDS011;23621;50.878;4.584;2023-04-25T11:06:45;4.57;;;2.08;;
37781;SDS011;23621;50.878;4.584;2023-04-25T11:09:54;4.72;;;1.98;;
37781;SDS011;23621;50.878;4.584;2023-04-25T11:12:41;5.35;;;2.45;;
37781;SDS011;23621;50.878;4.584;2023-04-25T11:15:28;5.05;;;2.38;;
37781;SDS011;23621;50.878;4.584;2023-04-25T11:18:16;6.57;;;2.70;;
37781;SDS011;23621;50.878;4.584;2023-04-25T11:21:04;4.38;;;2.75;;
37781;SDS011;23621;50.878;4.584;2023-04-25T11:23:53;5.03;;;2.25;;
37781;SDS011;23621;50.878;4.584;2023-04-25T11:26:43;6.07;;;2.58;;
37781;SDS011;23621;50.878;4.584;2023-04-25T11:29:34;4.63;;;2.42;;
37781;SDS011;23621;50.878;4.584;2023-04-25T11:32:21;5.47;;;2.80;;
37781;SDS011;23621;50.878;4.584;2023-04-25T11:35:12;4.95;;;2.60;;
37781;SDS011;23621;50.878;4.584;2023-04-25T11:37:59;2.95;;;2.65;;
37781;SDS011;23621;50.878;4.584;2023-04-25T11:40:54;4.82;;;2.70;;
37781;SDS011;23621;50.878;4.584;2023-04-25T11:43:43;6.38;;;3.10;;
37781;SDS011;23621;50.878;4.584;2023-04-25T11:46:33;6.15;;;3.28;;
37781;SDS011;23621;50.878;4.584;2023-04-25T11:49:21;5.18;;;3.08;;
37781;SDS011;23621;50.878;4.584;2023-04-25T11:52:08;8.45;;;3.42;;
37781;SDS011;23621;50.878;4.584;2023-04-25T11:54:56;5.05;;;2.88;;
37781;SDS011;23621;50.878;4.584;2023-04-25T11:57:44;8.10;;;2.83;;
37781;SDS011;23621;50.878;4.584;2023-04-25T12:00:34;3.22;;;2.35;;
37781;SDS011;23621;50.878;4.584;2023-04-25T12:03:21;5.80;;;2.50;;
37781;SDS011;23621;50.878;4.584;2023-04-25T12:06:16;3.33;;;2.33;;
37781;SDS011;23621;50.878;4.584;2023-04-25T12:09:06;4.65;;;2.13;;
37781;SDS011;23621;50.878;4.584;2023-04-25T12:11:55;6.03;;;2.42;;
37781;SDS011;23621;50.878;4.584;2023-04-25T12:14:50;3.65;;;1.98;;
37781;SDS011;23621;50.878;4.584;2023-04-25T12:17:38;4.85;;;2.10;;
37781;SDS011;23621;50.878;4.584;2023-04-25T12:20:25;4.28;;;2.08;;
37781;SDS011;23621;50.878;4.584;2023-04-25T12:23:13;3.67;;;1.88;;
37781;SDS011;23621;50.878;4.584;2023-04-25T12:26:00;4.53;;;1.90;;
37781;SDS011;23621;50.878;4.584;2023-04-25T12:28:49;2.63;;;1.55;;
37781;SDS011;23621;50.878;4.584;2023-04-25T12:31:36;3.72;;;1.80;;
37781;SDS011;23621;50.878;4.584;2023-04-25T12:34:24;2.38;;;1.40;;
37781;SDS011;23621;50.878;4.584;2023-04-25T12:37:11;2.58;;;1.65;;
37781;SDS011;23621;50.878;4.584;2023-04-25T12:39:59;2.03;;;1.40;;
37781;SDS011;23621;50.878;4.584;2023-04-25T12:42:46;2.60;;;1.50;;
37781;SDS011;23621;50.878;4.584;2023-04-25T12:45:33;2.58;;;1.42;;
37781;SDS011;23621;50.878;4.584;2023-04-25T12:48:20;3.45;;;1.63;;
37781;SDS011;23621;50.878;4.584;2023-04-25T12:51:08;1.98;;;1.60;;
37781;SDS011;23621;50.878;4.584;2023-04-25T12:53:55;2.88;;;1.50;;
37781;SDS011;23621;50.878;4.584;2023-04-25T12:56:42;2.28;;;1.52;;
37781;SDS011;23621;50.878;4.584;2023-04-25T12:59:30;2.50;;;1.40;;
37781;SDS011;23621;50.878;4.584;2023-04-25T13:02:17;2.40;;;1.40;;
37781;SDS011;23621;50.878;4.584;2023-04-25T13:05:05;1.70;;;1.50;;
37781;SDS011;23621;50.878;4.584;2023-04-25T13:07:52;2.17;;;1.40;;
37781;SDS011;23621;50.878;4.584;2023-04-25T13:10:40;4.20;;;1.60;;
37781;SDS011;23621;50.878;4.584;2023-04-25T13:13:27;3.47;;;1.52;;
37781;SDS011;23621;50.878;4.584;2023-04-25T13:16:15;4.97;;;1.70;;
37781;SDS011;23621;50.878;4.584;2023-04-25T13:19:02;4.20;;;1.90;;
37781;SDS011;23621;50.878;4.584;2023-04-25T13:21:49;5.50;;;2.08;;
37781;SDS011;23621;50.878;4.584;2023-04-25T13:24:37;4.30;;;2.08;;
37781;SDS011;23621;50.878;4.584;2023-04-25T13:27:24;3.97;;;2.10;;
37781;SDS011;23621;50.878;4.584;2023-04-25T13:30:11;2.10;;;1.58;;
37781;SDS011;23621;50.878;4.584;2023-04-25T13:36:19;3.58;;;1.42;;
37781;SDS011;23621;50.878;4.584;2023-04-25T13:39:07;3.42;;;1.48;;
37781;SDS011;23621;50.878;4.584;2023-04-25T13:41:54;6.10;;;1.73;;
37781;SDS011;23621;50.878;4.584;2023-04-25T13:44:42;3.33;;;1.77;;
37781;SDS011;23621;50.878;4.584;2023-04-25T13:47:29;2.83;;;1.48;;
37781;SDS011;23621;50.878;4.584;2023-04-25T13:50:17;2.42;;;1.60;;
37781;SDS011;23621;50.878;4.584;2023-04-25T13:53:05;3.60;;;1.55;;
37781;SDS011;23621;50.878;4.584;2023-04-25T13:55:52;3.58;;;1.73;;
37781;SDS011;23621;50.878;4.584;2023-04-25T13:58:39;2.67;;;1.60;;
37781;SDS011;23621;50.878;4.584;2023-04-25T14:01:26;3.78;;;2.08;;
37781;SDS011;23621;50.878;4.584;2023-04-25T14:04:14;4.80;;;1.70;;
37781;SDS011;23621;50.878;4.584;2023-04-25T14:07:02;9.05;;;2.50;;
37781;SDS011;23621;50.878;4.584;2023-04-25T14:09:50;3.05;;;1.83;;
37781;SDS011;23621;50.878;4.584;2023-04-25T14:12:37;3.28;;;1.60;;
37781;SDS011;23621;50.878;4.584;2023-04-25T14:15:24;1.70;;;1.50;;
37781;SDS011;23621;50.878;4.584;2023-04-25T14:18:12;1.73;;;1.20;;
37781;SDS011;23621;50.878;4.584;2023-04-25T14:20:59;3.05;;;2.00;;
37781;SDS011;23621;50.878;4.584;2023-04-25T14:23:46;2.53;;;1.35;;
37781;SDS011;23621;50.878;4.584;2023-04-25T14:26:34;4.07;;;1.85;;
37781;SDS011;23621;50.878;4.584;2023-04-25T14:29:22;2.75;;;1.95;;
37781;SDS011;23621;50.878;4.584;2023-04-25T14:32:09;3.45;;;1.50;;
37781;SDS011;23621;50.878;4.584;2023-04-25T14:34:57;2.15;;;1.70;;
37781;SDS011;23621;50.878;4.584;2023-04-25T14:37:44;3.33;;;1.50;;
37781;SDS011;23621;50.878;4.584;2023-04-25T14:40:32;4.05;;;1.55;;
37781;SDS011;23621;50.878;4.584;2023-04-25T14:43:19;2.75;;;1.40;;
37781;SDS011;23621;50.878;4.584;2023-04-25T14:46:06;3.75;;;1.60;;
37781;SDS011;23621;50.878;4.584;2023-04-25T14:48:54;4.70;;;1.60;;
37781;SDS011;23621;50.878;4.584;2023-04-25T14:51:42;2.08;;;1.45;;
37781;SDS011;23621;50.878;4.584;2023-04-25T14:54:30;2.17;;;1.50;;
37781;SDS011;23621;50.878;4.584;2023-04-25T14:57:17;2.85;;;1.40;;
37781;SDS011;23621;50.878;4.584;2023-04-25T15:00:05;3.03;;;1.60;;
37781;SDS011;23621;50.878;4.584;2023-04-25T15:02:55;1.35;;;1.10;;
37781;SDS011;23621;50.878;4.584;2023-04-25T15:05:43;1.85;;;1.30;;
37781;SDS011;23621;50.878;4.584;2023-04-25T15:08:31;3.08;;;1.60;;
37781;SDS011;23621;50.878;4.584;2023-04-25T15:11:19;3.65;;;1.60;;
37781;SDS011;23621;50.878;4.584;2023-04-25T15:14:09;1.70;;;1.33;;
37781;SDS011;23621;50.878;4.584;2023-04-25T15:16:56;2.78;;;1.55;;
37781;SDS011;23621;50.878;4.584;2023-04-25T15:19:43;3.05;;;1.70;;
37781;SDS011;23621;50.878;4.584;2023-04-25T15:22:31;2.85;;;1.65;;
37781;SDS011;23621;50.878;4.584;2023-04-25T15:25:18;3.35;;;1.63;;
37781;SDS011;23621;50.878;4.584;2023-04-25T15:28:06;1.88;;;1.50;;
37781;SDS011;23621;50.878;4.584;2023-04-25T15:30:53;3.35;;;1.50;;
37781;SDS011;23621;50.878;4.584;2023-04-25T15:33:40;3.05;;;1.60;;
37781;SDS011;23621;50.878;4.584;2023-04-25T15:36:27;2.13;;;1.30;;
37781;SDS011;23621;50.878;4.584;2023-04-25T15:39:14;1.38;;;1.27;;
37781;SDS011;23621;50.878;4.584;2023-04-25T15:42:02;2.35;;;1.80;;
37781;SDS011;23621;50.878;4.584;2023-04-25T15:44:49;1.98;;;1.30;;
37781;SDS011;23621;50.878;4.584;2023-04-25T15:47:37;2.90;;;1.40;;
37781;SDS011;23621;50.878;4.584;2023-04-25T15:50:25;2.65;;;1.40;;
37781;SDS011;23621;50.878;4.584;2023-04-25T15:53:12;3.60;;;1.50;;
37781;SDS011;23621;50.878;4.584;2023-04-25T15:55:59;2.40;;;1.25;;
37781;SDS011;23621;50.878;4.584;2023-04-25T15:58:47;2.55;;;1.40;;
37781;SDS011;23621;50.878;4.584;2023-04-25T16:01:34;2.22;;;1.30;;
37781;SDS011;23621;50.878;4.584;2023-04-25T16:04:22;2.88;;;1.30;;
37781;SDS011;23621;50.878;4.584;2023-04-25T16:07:10;3.05;;;1.50;;
37781;SDS011;23621;50.878;4.584;2023-04-25T16:09:59;2.78;;;1.50;;
37781;SDS011;23621;50.878;4.584;2023-04-25T16:12:46;2.10;;;1.40;;
37781;SDS011;23621;50.878;4.584;2023-04-25T16:15:35;2.13;;;1.45;;
37781;SDS011;23621;50.878;4.584;2023-04-25T16:18:22;1.23;;;1.08;;
37781;SDS011;23621;50.878;4.584;2023-04-25T16:21:10;2.75;;;1.40;;
37781;SDS011;23621;50.878;4.584;2023-04-25T16:24:03;3.22;;;1.27;;
37781;SDS011;23621;50.878;4.584;2023-04-25T16:26:50;3.30;;;1.30;;
37781;SDS011;23621;50.878;4.584;2023-04-25T16:29:37;2.60;;;1.35;;
37781;SDS011;23621;50.878;4.584;2023-04-25T16:32:25;3.15;;;1.30;;
37781;SDS011;23621;50.878;4.584;2023-04-25T16:35:12;3.53;;;1.25;;
37781;SDS011;23621;50.878;4.584;2023-04-25T16:37:59;2.65;;;1.30;;
37781;SDS011;23621;50.878;4.584;2023-04-25T16:40:47;2.45;;;1.25;;
37781;SDS011;23621;50.878;4.584;2023-04-25T16:43:34;3.03;;;1.10;;
37781;SDS011;23621;50.878;4.584;2023-04-25T16:46:21;2.75;;;1.25;;
37781;SDS011;23621;50.878;4.584;2023-04-25T16:49:09;1.30;;;1.20;;
37781;SDS011;23621;50.878;4.584;2023-04-25T16:51:56;3.67;;;1.48;;
37781;SDS011;23621;50.878;4.584;2023-04-25T16:54:44;2.60;;;1.20;;
37781;SDS011;23621;50.878;4.584;2023-04-25T16:57:31;3.03;;;1.33;;